Orneville Township, Maine
Current Conditions -  °F | °C
As of 7:53 PM on Friday 24 Oct 2014 (Local Time) from KMLT Reporting Station
Light Rain Light Rain  
Wind Chill: 38°   Ceiling: 2100
Heat Index: 43°   Visibility: 8mi
Dew Point: 40°   Wind: 9mph
Humidity: 89%   Direction: 340°NNW
Pressure: 29.69"   Gusts: NA
Location:  45.4158°N, 68.8178°W
Report Text: KMLT 242353Z AUTO 34008KT 8SM -RA SCT014 OVC021 06/04 A2969 RMK AO2 RAE18B49 SLP062 P0000 60003 T00610044 10072 20056 53005
Loading
Personal Weather Stations






























Interactive Weather Map
Tropical Storm Tracking
New forecast layout! Learn more

10-Day Weather Forecast

Advertisements
Track Severe Weather on mobile